sensor_id;sensor_type;location;lat;lon;timestamp;pressure;altitude;pressure_sealevel;temperature;humidity
86085;BME280;76694;53.530;50.016;2024-03-02T00:01:33;102884.16;;;-10.18;86.78
86085;BME280;76694;53.530;50.016;2024-03-02T00:06:36;102877.97;;;-10.25;87.13
86085;BME280;76694;53.530;50.016;2024-03-02T00:11:39;102900.72;;;-10.15;87.02
86085;BME280;76694;53.530;50.016;2024-03-02T00:16:42;102889.81;;;-10.26;86.60
86085;BME280;76694;53.530;50.016;2024-03-02T00:21:45;102907.44;;;-10.24;86.39
86085;BME280;76694;53.530;50.016;2024-03-02T00:26:48;102901.88;;;-10.29;86.42
86085;BME280;76694;53.530;50.016;2024-03-02T00:31:50;102899.22;;;-10.35;86.39
86085;BME280;76694;53.530;50.016;2024-03-02T00:36:53;102899.25;;;-10.42;86.45
86085;BME280;76694;53.530;50.016;2024-03-02T00:41:59;102907.38;;;-10.48;86.06
86085;BME280;76694;53.530;50.016;2024-03-02T00:47:02;102872.47;;;-10.75;86.00
86085;BME280;76694;53.530;50.016;2024-03-02T00:52:05;102871.06;;;-10.84;86.03
86085;BME280;76694;53.530;50.016;2024-03-02T00:57:11;102898.19;;;-10.72;85.66
86085;BME280;76694;53.530;50.016;2024-03-02T01:02:14;102901.94;;;-10.80;85.54
86085;BME280;76694;53.530;50.016;2024-03-02T01:07:17;102898.22;;;-10.85;85.61
86085;BME280;76694;53.530;50.016;2024-03-02T01:12:20;102887.94;;;-11.01;85.54
86085;BME280;76694;53.530;50.016;2024-03-02T01:17:23;102900.34;;;-11.00;85.53
86085;BME280;76694;53.530;50.016;2024-03-02T01:22:25;102899.56;;;-11.07;85.19
86085;BME280;76694;53.530;50.016;2024-03-02T01:27:28;102906.63;;;-11.13;85.16
86085;BME280;76694;53.530;50.016;2024-03-02T01:32:30;102895.47;;;-11.23;85.58
86085;BME280;76694;53.530;50.016;2024-03-02T01:37:33;102901.91;;;-11.24;85.14
86085;BME280;76694;53.530;50.016;2024-03-02T01:42:39;102904.16;;;-11.27;85.26
86085;BME280;76694;53.530;50.016;2024-03-02T01:47:41;102919.31;;;-11.33;85.35
86085;BME280;76694;53.530;50.016;2024-03-02T01:52:44;102890.16;;;-11.49;85.21
86085;BME280;76694;53.530;50.016;2024-03-02T01:57:47;102897.84;;;-11.59;84.69
86085;BME280;76694;53.530;50.016;2024-03-02T02:02:50;102926.41;;;-11.58;84.87
86085;BME280;76694;53.530;50.016;2024-03-02T02:07:54;102853.38;;;-12.07;84.54
86085;BME280;76694;53.530;50.016;2024-03-02T02:12:56;102922.50;;;-11.75;84.34
86085;BME280;76694;53.530;50.016;2024-03-02T02:17:59;102931.22;;;-11.86;84.58
86085;BME280;76694;53.530;50.016;2024-03-02T02:23:03;102939.88;;;-11.97;84.39
86085;BME280;76694;53.530;50.016;2024-03-02T02:28:07;102897.00;;;-12.25;84.33
86085;BME280;76694;53.530;50.016;2024-03-02T02:33:10;102947.75;;;-12.15;84.18
86085;BME280;76694;53.530;50.016;2024-03-02T02:38:13;102943.78;;;-12.26;84.00
86085;BME280;76694;53.530;50.016;2024-03-02T02:43:15;102944.38;;;-12.37;83.59
86085;BME280;76694;53.530;50.016;2024-03-02T02:48:18;102935.00;;;-12.54;83.56
86085;BME280;76694;53.530;50.016;2024-03-02T02:53:21;102948.88;;;-12.57;83.51
86085;BME280;76694;53.530;50.016;2024-03-02T02:58:24;102959.97;;;-12.67;83.61
86085;BME280;76694;53.530;50.016;2024-03-02T03:03:26;102944.81;;;-12.87;83.58
86085;BME280;76694;53.530;50.016;2024-03-02T03:08:29;102948.91;;;-12.91;83.17
86085;BME280;76694;53.530;50.016;2024-03-02T03:13:32;102968.72;;;-12.99;83.07
86085;BME280;76694;53.530;50.016;2024-03-02T03:18:34;102965.63;;;-13.09;83.17
86085;BME280;76694;53.530;50.016;2024-03-02T03:23:37;102971.31;;;-13.18;82.95
86085;BME280;76694;53.530;50.016;2024-03-02T03:28:40;102971.69;;;-13.28;83.04
86085;BME280;76694;53.530;50.016;2024-03-02T03:33:42;102979.47;;;-13.33;82.89
86085;BME280;76694;53.530;50.016;2024-03-02T03:38:46;102981.94;;;-13.38;82.89
86085;BME280;76694;53.530;50.016;2024-03-02T03:43:49;102994.47;;;-13.45;82.72
86085;BME280;76694;53.530;50.016;2024-03-02T03:48:51;102992.38;;;-13.50;83.09
86085;BME280;76694;53.530;50.016;2024-03-02T03:53:56;102978.25;;;-13.58;83.10
86085;BME280;76694;53.530;50.016;2024-03-02T03:58:59;102989.25;;;-13.53;82.75
86085;BME280;76694;53.530;50.016;2024-03-02T04:04:02;103010.84;;;-13.40;83.44
86085;BME280;76694;53.530;50.016;2024-03-02T04:09:05;103005.47;;;-13.40;83.79
86085;BME280;76694;53.530;50.016;2024-03-02T04:14:08;103020.69;;;-13.19;84.00
86085;BME280;76694;53.530;50.016;2024-03-02T04:19:11;103018.72;;;-13.04;83.72
86085;BME280;76694;53.530;50.016;2024-03-02T04:24:13;102971.09;;;-13.24;83.89
86085;BME280;76694;53.530;50.016;2024-03-02T04:29:16;103030.63;;;-12.79;84.08
86085;BME280;76694;53.530;50.016;2024-03-02T04:34:18;103023.63;;;-12.74;84.12
86085;BME280;76694;53.530;50.016;2024-03-02T04:39:21;103033.63;;;-12.61;84.31
86085;BME280;76694;53.530;50.016;2024-03-02T04:44:23;103026.63;;;-12.56;84.42
86085;BME280;76694;53.530;50.016;2024-03-02T04:49:26;103016.94;;;-12.44;84.68
86085;BME280;76694;53.530;50.016;2024-03-02T04:54:29;103020.09;;;-12.27;85.06
86085;BME280;76694;53.530;50.016;2024-03-02T04:59:31;103031.13;;;-12.15;85.53
86085;BME280;76694;53.530;50.016;2024-03-02T05:04:34;103018.50;;;-12.08;85.84
86085;BME280;76694;53.530;50.016;2024-03-02T05:09:37;103030.34;;;-11.90;86.25
86085;BME280;76694;53.530;50.016;2024-03-02T05:14:39;102983.97;;;-12.05;86.49
86085;BME280;76694;53.530;50.016;2024-03-02T05:19:42;103026.03;;;-11.58;86.49
86085;BME280;76694;53.530;50.016;2024-03-02T05:24:44;103034.75;;;-11.36;86.68
86085;BME280;76694;53.530;50.016;2024-03-02T05:29:47;103013.59;;;-11.26;87.03
86085;BME280;76694;53.530;50.016;2024-03-02T05:34:50;103004.91;;;-11.22;87.21
86085;BME280;76694;53.530;50.016;2024-03-02T05:39:53;103021.41;;;-10.86;87.73
86085;BME280;76694;53.530;50.016;2024-03-02T05:44:56;103015.53;;;-10.70;88.06
86085;BME280;76694;53.530;50.016;2024-03-02T05:49:59;102990.66;;;-10.65;88.24
86085;BME280;76694;53.530;50.016;2024-03-02T05:55:01;103035.44;;;-10.13;88.93
86085;BME280;76694;53.530;50.016;2024-03-02T06:00:05;103038.38;;;-9.83;89.16
86085;BME280;76694;53.530;50.016;2024-03-02T06:05:10;103039.22;;;-9.52;88.92
86085;BME280;76694;53.530;50.016;2024-03-02T06:10:12;103027.28;;;-9.20;89.22
86085;BME280;76694;53.530;50.016;2024-03-02T06:15:15;103019.63;;;-8.98;89.16
86085;BME280;76694;53.530;50.016;2024-03-02T06:20:19;103000.94;;;-8.81;89.34
86085;BME280;76694;53.530;50.016;2024-03-02T06:25:21;103025.13;;;-8.50;90.08
86085;BME280;76694;53.530;50.016;2024-03-02T06:30:24;103021.13;;;-8.30;89.75
86085;BME280;76694;53.530;50.016;2024-03-02T06:35:27;103030.78;;;-8.04;90.28
86085;BME280;76694;53.530;50.016;2024-03-02T06:40:29;103027.94;;;-7.79;90.62
86085;BME280;76694;53.530;50.016;2024-03-02T06:45:32;103024.31;;;-7.62;90.43
86085;BME280;76694;53.530;50.016;2024-03-02T06:50:36;102999.59;;;-7.54;90.97
86085;BME280;76694;53.530;50.016;2024-03-02T06:55:39;103030.44;;;-7.13;91.05
86085;BME280;76694;53.530;50.016;2024-03-02T07:00:42;103019.00;;;-6.92;91.07
86085;BME280;76694;53.530;50.016;2024-03-02T07:05:46;103019.00;;;-6.69;91.42
86085;BME280;76694;53.530;50.016;2024-03-02T07:10:50;102976.72;;;-6.65;91.83
86085;BME280;76694;53.530;50.016;2024-03-02T07:15:54;103014.19;;;-5.99;91.60
86085;BME280;76694;53.530;50.016;2024-03-02T07:21:07;103014.13;;;-5.71;91.88
86085;BME280;76694;53.530;50.016;2024-03-02T07:26:11;103022.16;;;-5.48;92.10
86085;BME280;76694;53.530;50.016;2024-03-02T07:31:15;103010.72;;;-5.17;92.03
86085;BME280;76694;53.530;50.016;2024-03-02T07:36:19;103017.38;;;-4.91;92.12
86085;BME280;76694;53.530;50.016;2024-03-02T07:41:22;103027.91;;;-4.61;91.97
86085;BME280;76694;53.530;50.016;2024-03-02T07:46:25;103006.38;;;-4.41;92.00
86085;BME280;76694;53.530;50.016;2024-03-02T07:51:28;103004.44;;;-4.24;91.95
86085;BME280;76694;53.530;50.016;2024-03-02T07:56:31;103010.22;;;-3.94;92.47
86085;BME280;76694;53.530;50.016;2024-03-02T08:01:34;103015.06;;;-3.74;92.28
86085;BME280;76694;53.530;50.016;2024-03-02T08:06:37;102978.09;;;-3.60;92.17
86085;BME280;76694;53.530;50.016;2024-03-02T08:11:39;102979.16;;;-3.35;92.37
86085;BME280;76694;53.530;50.016;2024-03-02T08:16:42;102995.81;;;-2.53;91.69
86085;BME280;76694;53.530;50.016;2024-03-02T08:21:45;102959.41;;;4.40;71.32
86085;BME280;76694;53.530;50.016;2024-03-02T08:26:47;102947.19;;;1.77;65.60
86085;BME280;76694;53.530;50.016;2024-03-02T08:31:50;102943.16;;;1.69;66.66
86085;BME280;76694;53.530;50.016;2024-03-02T08:36:53;102943.66;;;2.32;67.28
86085;BME280;76694;53.530;50.016;2024-03-02T08:41:55;102959.63;;;2.49;67.29
86085;BME280;76694;53.530;50.016;2024-03-02T08:46:58;102936.75;;;3.53;66.39
86085;BME280;76694;53.530;50.016;2024-03-02T08:52:20;102945.38;;;4.37;64.23
86085;BME280;76694;53.530;50.016;2024-03-02T08:57:23;102914.28;;;5.93;49.62
86085;BME280;76694;53.530;50.016;2024-03-02T09:02:25;102931.59;;;7.22;44.36
86085;BME280;76694;53.530;50.016;2024-03-02T09:07:28;102888.84;;;7.73;51.66
86085;BME280;76694;53.530;50.016;2024-03-02T09:12:31;102913.25;;;7.29;53.24
86085;BME280;76694;53.530;50.016;2024-03-02T09:17:34;102915.91;;;7.84;46.73
86085;BME280;76694;53.530;50.016;2024-03-02T09:22:37;102904.94;;;7.59;42.09
86085;BME280;76694;53.530;50.016;2024-03-02T09:27:39;102916.16;;;7.42;58.73
86085;BME280;76694;53.530;50.016;2024-03-02T09:32:42;102909.81;;;6.86;63.41
86085;BME280;76694;53.530;50.016;2024-03-02T09:37:45;102912.31;;;6.62;57.86
86085;BME280;76694;53.530;50.016;2024-03-02T09:42:48;102916.91;;;6.32;62.21
86085;BME280;76694;53.530;50.016;2024-03-02T09:47:54;102925.41;;;6.19;65.57
86085;BME280;76694;53.530;50.016;2024-03-02T09:52:59;102923.69;;;5.27;63.66
86085;BME280;76694;53.530;50.016;2024-03-02T09:58:02;102918.72;;;5.16;67.61
86085;BME280;76694;53.530;50.016;2024-03-02T10:03:05;102924.00;;;4.95;67.82
86085;BME280;76694;53.530;50.016;2024-03-02T10:08:14;102908.53;;;4.41;62.41
86085;BME280;76694;53.530;50.016;2024-03-02T10:13:17;102896.63;;;4.19;55.08
86085;BME280;76694;53.530;50.016;2024-03-02T10:18:26;102929.50;;;4.64;69.78
86085;BME280;76694;53.530;50.016;2024-03-02T10:23:29;102933.66;;;4.18;71.76
86085;BME280;76694;53.530;50.016;2024-03-02T10:28:31;102933.06;;;3.71;72.25
86085;BME280;76694;53.530;50.016;2024-03-02T10:33:34;102908.03;;;3.00;72.60
86085;BME280;76694;53.530;50.016;2024-03-02T10:38:37;102912.75;;;2.67;72.57
86085;BME280;76694;53.530;50.016;2024-03-02T10:43:40;102934.13;;;2.43;73.97
86085;BME280;76694;53.530;50.016;2024-03-02T10:48:45;102869.75;;;1.83;74.71
86085;BME280;76694;53.530;50.016;2024-03-02T10:53:49;102920.22;;;1.97;74.75
86085;BME280;76694;53.530;50.016;2024-03-02T10:58:59;102937.31;;;1.94;74.79
86085;BME280;76694;53.530;50.016;2024-03-02T11:04:04;102935.75;;;1.88;74.43
86085;BME280;76694;53.530;50.016;2024-03-02T11:09:11;102914.47;;;1.75;73.38
86085;BME280;76694;53.530;50.016;2024-03-02T11:14:17;102922.50;;;1.72;72.66
86085;BME280;76694;53.530;50.016;2024-03-02T11:19:24;102909.41;;;1.63;72.84
86085;BME280;76694;53.530;50.016;2024-03-02T11:24:28;102943.72;;;1.47;72.19
86085;BME280;76694;53.530;50.016;2024-03-02T11:34:38;102926.19;;;1.15;73.27
86085;BME280;76694;53.530;50.016;2024-03-02T11:39:44;102951.91;;;1.29;74.05
86085;BME280;76694;53.530;50.016;2024-03-02T11:44:47;102911.13;;;0.83;71.79
86085;BME280;76694;53.530;50.016;2024-03-02T11:49:51;102944.38;;;0.87;71.44
86085;BME280;76694;53.530;50.016;2024-03-02T11:54:55;102949.88;;;0.87;73.24
86085;BME280;76694;53.530;50.016;2024-03-02T11:59:58;102948.88;;;0.73;73.86
86085;BME280;76694;53.530;50.016;2024-03-02T12:05:03;102923.56;;;0.47;73.56
86085;BME280;76694;53.530;50.016;2024-03-02T12:10:06;102944.41;;;0.53;74.46
86085;BME280;76694;53.530;50.016;2024-03-02T12:15:09;102950.22;;;0.47;75.11
86085;BME280;76694;53.530;50.016;2024-03-02T12:20:12;102939.69;;;0.20;73.01
86085;BME280;76694;53.530;50.016;2024-03-02T12:25:16;102949.06;;;0.14;71.08
86085;BME280;76694;53.530;50.016;2024-03-02T12:30:19;102957.78;;;0.21;71.92
86085;BME280;76694;53.530;50.016;2024-03-02T12:35:22;102965.56;;;0.09;70.73
86085;BME280;76694;53.530;50.016;2024-03-02T12:40:26;102967.00;;;0.02;72.26
86085;BME280;76694;53.530;50.016;2024-03-02T12:45:29;102964.31;;;-0.14;70.13
86085;BME280;76694;53.530;50.016;2024-03-02T12:50:33;102937.88;;;-0.48;67.07
86085;BME280;76694;53.530;50.016;2024-03-02T12:55:36;102952.19;;;-0.56;66.82
86085;BME280;76694;53.530;50.016;2024-03-02T13:00:40;102957.09;;;-0.53;72.41
86085;BME280;76694;53.530;50.016;2024-03-02T13:05:42;102987.53;;;-0.55;73.98
86085;BME280;76694;53.530;50.016;2024-03-02T13:10:50;102957.78;;;-1.07;69.43
86085;BME280;76694;53.530;50.016;2024-03-02T13:15:56;102991.47;;;-1.16;70.58
86085;BME280;76694;53.530;50.016;2024-03-02T13:20:58;102975.31;;;-1.43;71.53
86085;BME280;76694;53.530;50.016;2024-03-02T13:26:01;102991.44;;;-1.62;72.16
86085;BME280;76694;53.530;50.016;2024-03-02T13:31:04;102979.94;;;-1.74;74.09
86085;BME280;76694;53.530;50.016;2024-03-02T13:36:08;102987.56;;;-1.91;75.06
86085;BME280;76694;53.530;50.016;2024-03-02T13:41:10;102996.31;;;-1.94;77.13
86085;BME280;76694;53.530;50.016;2024-03-02T13:46:14;103006.34;;;-2.24;76.33
86085;BME280;76694;53.530;50.016;2024-03-02T13:51:16;103011.94;;;-2.51;74.90
86085;BME280;76694;53.530;50.016;2024-03-02T13:56:19;102993.59;;;-2.61;77.53
86085;BME280;76694;53.530;50.016;2024-03-02T14:01:22;103017.41;;;-2.93;75.57
86085;BME280;76694;53.530;50.016;2024-03-02T14:06:25;103015.09;;;-3.11;77.94
86085;BME280;76694;53.530;50.016;2024-03-02T14:11:31;103019.13;;;-3.50;76.65
86085;BME280;76694;53.530;50.016;2024-03-02T14:16:34;103023.25;;;-3.74;77.61
86085;BME280;76694;53.530;50.016;2024-03-02T14:21:37;103013.09;;;-4.05;78.34
86085;BME280;76694;53.530;50.016;2024-03-02T14:26:40;103029.97;;;-4.30;79.64
86085;BME280;76694;53.530;50.016;2024-03-02T14:31:43;103036.44;;;-4.74;79.56
86085;BME280;76694;53.530;50.016;2024-03-02T14:36:46;103036.38;;;-5.13;80.17
86085;BME280;76694;53.530;50.016;2024-03-02T14:41:49;103045.91;;;-5.43;81.05
86085;BME280;76694;53.530;50.016;2024-03-02T14:46:55;103055.47;;;-5.57;81.78
86085;BME280;76694;53.530;50.016;2024-03-02T14:51:59;103025.75;;;-5.92;82.14
86085;BME280;76694;53.530;50.016;2024-03-02T14:57:02;103047.00;;;-5.89;83.02
86085;BME280;76694;53.530;50.016;2024-03-02T15:02:07;103029.53;;;-6.21;84.08
86085;BME280;76694;53.530;50.016;2024-03-02T15:07:10;103060.56;;;-6.17;83.60
86085;BME280;76694;53.530;50.016;2024-03-02T15:12:13;103068.41;;;-6.56;83.01
86085;BME280;76694;53.530;50.016;2024-03-02T15:17:16;103061.34;;;-6.80;84.03
86085;BME280;76694;53.530;50.016;2024-03-02T15:22:20;103066.66;;;-6.73;84.75
86085;BME280;76694;53.530;50.016;2024-03-02T15:27:24;103080.22;;;-6.96;84.09
86085;BME280;76694;53.530;50.016;2024-03-02T15:32:27;103056.97;;;-7.15;85.28
86085;BME280;76694;53.530;50.016;2024-03-02T15:37:30;103086.53;;;-7.25;84.89
86085;BME280;76694;53.530;50.016;2024-03-02T15:42:33;103089.19;;;-7.37;85.16
86085;BME280;76694;53.530;50.016;2024-03-02T15:47:36;103061.16;;;-7.72;85.56
86085;BME280;76694;53.530;50.016;2024-03-02T15:52:40;103082.63;;;-7.71;85.63
86085;BME280;76694;53.530;50.016;2024-03-02T15:57:44;103063.88;;;-8.02;85.66
86085;BME280;76694;53.530;50.016;2024-03-02T16:02:47;103070.25;;;-7.96;86.63
86085;BME280;76694;53.530;50.016;2024-03-02T16:07:50;103059.06;;;-8.00;86.79
86085;BME280;76694;53.530;50.016;2024-03-02T16:12:52;103061.06;;;-8.25;86.03
86085;BME280;76694;53.530;50.016;2024-03-02T16:17:58;103085.03;;;-8.47;86.24
86085;BME280;76694;53.530;50.016;2024-03-02T16:23:01;103069.03;;;-8.66;86.22
86085;BME280;76694;53.530;50.016;2024-03-02T16:28:04;103088.53;;;-8.82;85.78
86085;BME280;76694;53.530;50.016;2024-03-02T16:33:07;103082.03;;;-8.75;86.42
86085;BME280;76694;53.530;50.016;2024-03-02T16:38:10;103093.38;;;-8.91;86.73
86085;BME280;76694;53.530;50.016;2024-03-02T16:43:13;103087.31;;;-9.11;86.39
86085;BME280;76694;53.530;50.016;2024-03-02T16:48:16;103069.28;;;-9.42;86.76
86085;BME280;76694;53.530;50.016;2024-03-02T16:53:19;103088.66;;;-9.51;86.83
86085;BME280;76694;53.530;50.016;2024-03-02T16:58:24;103071.75;;;-9.71;87.39
86085;BME280;76694;53.530;50.016;2024-03-02T17:03:28;103090.69;;;-9.78;87.14
86085;BME280;76694;53.530;50.016;2024-03-02T17:08:32;103029.34;;;-10.40;86.89
86085;BME280;76694;53.530;50.016;2024-03-02T17:13:35;103108.78;;;-10.16;86.50
86085;BME280;76694;53.530;50.016;2024-03-02T17:18:39;103108.41;;;-10.33;86.47
86085;BME280;76694;53.530;50.016;2024-03-02T17:23:42;103108.03;;;-10.49;86.87
86085;BME280;76694;53.530;50.016;2024-03-02T17:28:47;103090.44;;;-10.72;86.34
86085;BME280;76694;53.530;50.016;2024-03-02T17:33:54;103104.75;;;-10.78;86.31
86085;BME280;76694;53.530;50.016;2024-03-02T17:38:57;103109.75;;;-10.88;86.48
86085;BME280;76694;53.530;50.016;2024-03-02T17:44:03;103081.38;;;-11.10;86.05
86085;BME280;76694;53.530;50.016;2024-03-02T17:49:24;103108.72;;;-11.13;85.99
86085;BME280;76694;53.530;50.016;2024-03-02T17:54:27;103114.50;;;-11.35;86.30
86085;BME280;76694;53.530;50.016;2024-03-02T17:59:30;103108.69;;;-11.45;86.24
86085;BME280;76694;53.530;50.016;2024-03-02T18:04:33;103079.25;;;-11.67;85.73
86085;BME280;76694;53.530;50.016;2024-03-02T18:09:37;103079.63;;;-11.89;85.74
86085;BME280;76694;53.530;50.016;2024-03-02T18:14:40;103088.09;;;-11.92;85.59
86085;BME280;76694;53.530;50.016;2024-03-02T18:19:42;103070.03;;;-12.11;85.69
86085;BME280;76694;53.530;50.016;2024-03-02T18:24:46;103104.44;;;-11.94;85.74
86085;BME280;76694;53.530;50.016;2024-03-02T18:29:49;103101.88;;;-12.21;85.05
86085;BME280;76694;53.530;50.016;2024-03-02T18:34:52;103103.66;;;-12.35;85.33
86085;BME280;76694;53.530;50.016;2024-03-02T18:39:55;103107.94;;;-12.47;84.80
86085;BME280;76694;53.530;50.016;2024-03-02T18:44:58;103106.22;;;-12.61;85.01
86085;BME280;76694;53.530;50.016;2024-03-02T18:50:04;103114.75;;;-12.79;84.36
86085;BME280;76694;53.530;50.016;2024-03-02T18:55:11;103112.91;;;-12.78;84.61
86085;BME280;76694;53.530;50.016;2024-03-02T19:00:17;103069.97;;;-13.34;84.40
86085;BME280;76694;53.530;50.016;2024-03-02T19:05:20;103112.69;;;-13.11;84.60
86085;BME280;76694;53.530;50.016;2024-03-02T19:10:23;103074.13;;;-13.52;84.14
86085;BME280;76694;53.530;50.016;2024-03-02T19:15:25;103125.75;;;-13.29;83.86
86085;BME280;76694;53.530;50.016;2024-03-02T19:20:28;103118.84;;;-13.38;83.66
86085;BME280;76694;53.530;50.016;2024-03-02T19:25:30;103113.84;;;-13.41;84.24
86085;BME280;76694;53.530;50.016;2024-03-02T19:30:33;103124.91;;;-13.72;84.07
86085;BME280;76694;53.530;50.016;2024-03-02T19:35:36;103116.91;;;-13.86;84.07
86085;BME280;76694;53.530;50.016;2024-03-02T19:40:39;103101.84;;;-14.02;83.89
86085;BME280;76694;53.530;50.016;2024-03-02T19:45:42;103119.94;;;-13.89;83.43
86085;BME280;76694;53.530;50.016;2024-03-02T19:50:44;103107.31;;;-14.10;83.65
86085;BME280;76694;53.530;50.016;2024-03-02T19:55:47;103095.13;;;-14.34;83.17
86085;BME280;76694;53.530;50.016;2024-03-02T20:00:50;103098.81;;;-14.35;83.04
86085;BME280;76694;53.530;50.016;2024-03-02T20:05:53;103132.91;;;-14.29;83.04
86085;BME280;76694;53.530;50.016;2024-03-02T20:10:55;103113.69;;;-14.61;83.14
86085;BME280;76694;53.530;50.016;2024-03-02T20:15:58;103133.38;;;-14.69;82.86
86085;BME280;76694;53.530;50.016;2024-03-02T20:21:01;103133.28;;;-14.75;83.21
86085;BME280;76694;53.530;50.016;2024-03-02T20:26:04;103130.97;;;-14.78;83.02
86085;BME280;76694;53.530;50.016;2024-03-02T20:31:07;103137.69;;;-14.82;82.85
86085;BME280;76694;53.530;50.016;2024-03-02T20:36:14;103128.56;;;-14.88;82.95
86085;BME280;76694;53.530;50.016;2024-03-02T20:41:19;103136.03;;;-14.98;83.23
86085;BME280;76694;53.530;50.016;2024-03-02T20:46:22;103104.19;;;-15.30;82.75
86085;BME280;76694;53.530;50.016;2024-03-02T20:51:25;103122.44;;;-15.34;82.81
86085;BME280;76694;53.530;50.016;2024-03-02T20:56:34;103138.69;;;-15.35;82.46
86085;BME280;76694;53.530;50.016;2024-03-02T21:01:47;103141.72;;;-15.38;82.52
86085;BME280;76694;53.530;50.016;2024-03-02T21:06:50;103124.84;;;-15.61;82.17
86085;BME280;76694;53.530;50.016;2024-03-02T21:11:52;103147.94;;;-15.60;82.17
86085;BME280;76694;53.530;50.016;2024-03-02T21:16:55;103148.03;;;-15.77;81.82
86085;BME280;76694;53.530;50.016;2024-03-02T21:21:58;103139.34;;;-15.79;81.95
86085;BME280;76694;53.530;50.016;2024-03-02T21:27:01;103115.09;;;-16.00;81.58
86085;BME280;76694;53.530;50.016;2024-03-02T21:32:03;103137.00;;;-16.04;81.74
86085;BME280;76694;53.530;50.016;2024-03-02T21:37:07;103139.84;;;-16.06;81.54
86085;BME280;76694;53.530;50.016;2024-03-02T21:42:11;103134.25;;;-16.27;81.34
86085;BME280;76694;53.530;50.016;2024-03-02T21:47:13;103143.78;;;-16.24;81.56
86085;BME280;76694;53.530;50.016;2024-03-02T21:52:18;103143.44;;;-16.29;81.58
86085;BME280;76694;53.530;50.016;2024-03-02T21:57:21;103136.84;;;-16.41;81.49
86085;BME280;76694;53.530;50.016;2024-03-02T22:02:23;103148.56;;;-16.50;81.43
86085;BME280;76694;53.530;50.016;2024-03-02T22:07:26;103137.59;;;-16.72;81.45
86085;BME280;76694;53.530;50.016;2024-03-02T22:12:28;103139.13;;;-16.77;81.36
86085;BME280;76694;53.530;50.016;2024-03-02T22:17:31;103153.81;;;-16.81;80.98
86085;BME280;76694;53.530;50.016;2024-03-02T22:22:34;103142.81;;;-16.86;81.58
86085;BME280;76694;53.530;50.016;2024-03-02T22:27:37;103140.66;;;-16.91;81.24
86085;BME280;76694;53.530;50.016;2024-03-02T22:32:40;103162.50;;;-16.79;81.30
86085;BME280;76694;53.530;50.016;2024-03-02T22:37:42;103150.03;;;-17.11;80.76
86085;BME280;76694;53.530;50.016;2024-03-02T22:42:45;103134.50;;;-17.23;81.12
86085;BME280;76694;53.530;50.016;2024-03-02T22:47:47;103133.53;;;-17.22;81.09
86085;BME280;76694;53.530;50.016;2024-03-02T22:52:50;103154.38;;;-17.10;80.66
86085;BME280;76694;53.530;50.016;2024-03-02T22:57:53;103149.00;;;-17.26;80.57
86085;BME280;76694;53.530;50.016;2024-03-02T23:02:58;103149.69;;;-17.32;80.26
86085;BME280;76694;53.530;50.016;2024-03-02T23:08:01;103154.69;;;-17.29;80.48
86085;BME280;76694;53.530;50.016;2024-03-02T23:13:03;103128.06;;;-17.53;80.39
86085;BME280;76694;53.530;50.016;2024-03-02T23:18:06;103090.88;;;-17.87;79.86
86085;BME280;76694;53.530;50.016;2024-03-02T23:23:09;103131.72;;;-17.70;79.93
86085;BME280;76694;53.530;50.016;2024-03-02T23:28:11;103114.22;;;-17.73;80.17
86085;BME280;76694;53.530;50.016;2024-03-02T23:33:14;103117.84;;;-17.74;80.21
86085;BME280;76694;53.530;50.016;2024-03-02T23:38:17;103131.53;;;-17.77;80.26
86085;BME280;76694;53.530;50.016;2024-03-02T23:43:19;103136.38;;;-17.80;80.17
86085;BME280;76694;53.530;50.016;2024-03-02T23:48:22;103138.47;;;-18.00;80.08
86085;BME280;76694;53.530;50.016;2024-03-02T23:53:24;103148.81;;;-17.97;80.40
86085;BME280;76694;53.530;50.016;2024-03-02T23:58:27;103119.44;;;-18.21;80.08
